sensor_id;sensor_type;location;lat;lon;timestamp;P1;durP1;ratioP1;P2;durP2;ratioP2
51475;SDS011;37554;50.362;7.568;2023-10-09T00:01:05;5.22;;;4.28;;
51475;SDS011;37554;50.362;7.568;2023-10-09T00:03:46;5.35;;;4.47;;
51475;SDS011;37554;50.362;7.568;2023-10-09T00:06:18;6.32;;;4.35;;
51475;SDS011;37554;50.362;7.568;2023-10-09T00:08:55;4.72;;;4.22;;
51475;SDS011;37554;50.362;7.568;2023-10-09T00:11:21;4.82;;;4.32;;
51475;SDS011;37554;50.362;7.568;2023-10-09T00:13:47;6.78;;;4.63;;
51475;SDS011;37554;50.362;7.568;2023-10-09T00:16:22;6.97;;;4.20;;
51475;SDS011;37554;50.362;7.568;2023-10-09T00:18:59;6.60;;;4.13;;
51475;SDS011;37554;50.362;7.568;2023-10-09T00:21:39;6.68;;;3.97;;
51475;SDS011;37554;50.362;7.568;2023-10-09T00:24:05;5.55;;;3.70;;
51475;SDS011;37554;50.362;7.568;2023-10-09T00:26:38;5.65;;;3.90;;
51475;SDS011;37554;50.362;7.568;2023-10-09T00:29:09;4.60;;;3.80;;
51475;SDS011;37554;50.362;7.568;2023-10-09T00:31:40;6.50;;;4.85;;
51475;SDS011;37554;50.362;7.568;2023-10-09T00:34:15;5.45;;;3.85;;
51475;SDS011;37554;50.362;7.568;2023-10-09T00:36:44;5.18;;;4.07;;
51475;SDS011;37554;50.362;7.568;2023-10-09T00:39:20;4.95;;;3.95;;
51475;SDS011;37554;50.362;7.568;2023-10-09T00:42:01;5.05;;;4.05;;
51475;SDS011;37554;50.362;7.568;2023-10-09T00:44:28;6.28;;;4.40;;
51475;SDS011;37554;50.362;7.568;2023-10-09T00:47:11;8.25;;;5.00;;
51475;SDS011;37554;50.362;7.568;2023-10-09T00:49:59;7.97;;;4.32;;
51475;SDS011;37554;50.362;7.568;2023-10-09T00:52:39;5.65;;;4.20;;
51475;SDS011;37554;50.362;7.568;2023-10-09T00:55:16;5.78;;;4.30;;
51475;SDS011;37554;50.362;7.568;2023-10-09T00:57:52;6.35;;;4.38;;
51475;SDS011;37554;50.362;7.568;2023-10-09T01:00:25;5.43;;;4.38;;
51475;SDS011;37554;50.362;7.568;2023-10-09T01:03:00;5.70;;;4.53;;
51475;SDS011;37554;50.362;7.568;2023-10-09T01:05:44;5.35;;;3.78;;
51475;SDS011;37554;50.362;7.568;2023-10-09T01:08:22;7.05;;;4.30;;
51475;SDS011;37554;50.362;7.568;2023-10-09T01:11:12;4.68;;;3.55;;
51475;SDS011;37554;50.362;7.568;2023-10-09T01:13:54;5.37;;;3.73;;
51475;SDS011;37554;50.362;7.568;2023-10-09T01:16:28;4.72;;;3.75;;
51475;SDS011;37554;50.362;7.568;2023-10-09T01:18:56;4.30;;;3.65;;
51475;SDS011;37554;50.362;7.568;2023-10-09T01:21:22;4.57;;;3.60;;
51475;SDS011;37554;50.362;7.568;2023-10-09T01:23:52;7.10;;;3.80;;
51475;SDS011;37554;50.362;7.568;2023-10-09T01:26:27;7.00;;;4.32;;
51475;SDS011;37554;50.362;7.568;2023-10-09T01:29:09;5.93;;;4.00;;
51475;SDS011;37554;50.362;7.568;2023-10-09T01:31:42;4.80;;;3.92;;
51475;SDS011;37554;50.362;7.568;2023-10-09T01:34:22;6.10;;;3.97;;
51475;SDS011;37554;50.362;7.568;2023-10-09T01:37:03;7.30;;;4.68;;
51475;SDS011;37554;50.362;7.568;2023-10-09T01:39:35;5.70;;;4.43;;
51475;SDS011;37554;50.362;7.568;2023-10-09T01:42:06;6.50;;;4.70;;
51475;SDS011;37554;50.362;7.568;2023-10-09T01:44:32;5.75;;;4.15;;
51475;SDS011;37554;50.362;7.568;2023-10-09T01:47:08;5.55;;;4.05;;
51475;SDS011;37554;50.362;7.568;2023-10-09T01:49:36;7.00;;;5.10;;
51475;SDS011;37554;50.362;7.568;2023-10-09T01:52:06;6.65;;;4.35;;
51475;SDS011;37554;50.362;7.568;2023-10-09T01:54:42;10.73;;;5.40;;
51475;SDS011;37554;50.362;7.568;2023-10-09T01:57:17;6.70;;;4.97;;
51475;SDS011;37554;50.362;7.568;2023-10-09T01:59:55;7.57;;;4.95;;
51475;SDS011;37554;50.362;7.568;2023-10-09T02:02:23;7.05;;;5.45;;
51475;SDS011;37554;50.362;7.568;2023-10-09T02:07:18;7.43;;;5.18;;
51475;SDS011;37554;50.362;7.568;2023-10-09T02:09:52;7.05;;;5.43;;
51475;SDS011;37554;50.362;7.568;2023-10-09T02:12:19;8.13;;;4.85;;
51475;SDS011;37554;50.362;7.568;2023-10-09T02:14:46;7.43;;;5.03;;
51475;SDS011;37554;50.362;7.568;2023-10-09T02:17:12;8.13;;;5.32;;
51475;SDS011;37554;50.362;7.568;2023-10-09T02:19:45;6.40;;;4.88;;
51475;SDS011;37554;50.362;7.568;2023-10-09T02:22:14;8.93;;;5.53;;
51475;SDS011;37554;50.362;7.568;2023-10-09T02:24:42;8.55;;;4.80;;
51475;SDS011;37554;50.362;7.568;2023-10-09T02:27:24;6.28;;;4.50;;
51475;SDS011;37554;50.362;7.568;2023-10-09T02:30:10;9.88;;;5.15;;
51475;SDS011;37554;50.362;7.568;2023-10-09T02:32:44;6.22;;;4.70;;
51475;SDS011;37554;50.362;7.568;2023-10-09T02:35:13;6.57;;;5.15;;
51475;SDS011;37554;50.362;7.568;2023-10-09T02:37:46;7.57;;;4.40;;
51475;SDS011;37554;50.362;7.568;2023-10-09T02:40:13;7.13;;;4.70;;
51475;SDS011;37554;50.362;7.568;2023-10-09T02:42:48;6.47;;;4.15;;
51475;SDS011;37554;50.362;7.568;2023-10-09T02:45:14;7.70;;;4.53;;
51475;SDS011;37554;50.362;7.568;2023-10-09T02:47:49;6.13;;;4.10;;
51475;SDS011;37554;50.362;7.568;2023-10-09T02:50:16;5.63;;;4.40;;
51475;SDS011;37554;50.362;7.568;2023-10-09T02:52:46;4.95;;;4.07;;
51475;SDS011;37554;50.362;7.568;2023-10-09T02:55:17;6.43;;;4.53;;
51475;SDS011;37554;50.362;7.568;2023-10-09T02:57:52;6.18;;;3.83;;
51475;SDS011;37554;50.362;7.568;2023-10-09T03:00:39;5.53;;;4.30;;
51475;SDS011;37554;50.362;7.568;2023-10-09T03:03:09;7.25;;;4.53;;
51475;SDS011;37554;50.362;7.568;2023-10-09T03:05:35;6.30;;;3.85;;
51475;SDS011;37554;50.362;7.568;2023-10-09T03:08:07;6.75;;;3.75;;
51475;SDS011;37554;50.362;7.568;2023-10-09T03:10:33;5.90;;;3.97;;
51475;SDS011;37554;50.362;7.568;2023-10-09T03:12:59;6.30;;;4.00;;
51475;SDS011;37554;50.362;7.568;2023-10-09T03:15:26;8.38;;;4.15;;
51475;SDS011;37554;50.362;7.568;2023-10-09T03:17:54;6.00;;;3.90;;
51475;SDS011;37554;50.362;7.568;2023-10-09T03:20:19;5.35;;;3.83;;
51475;SDS011;37554;50.362;7.568;2023-10-09T03:22:45;5.10;;;3.78;;
51475;SDS011;37554;50.362;7.568;2023-10-09T03:25:12;8.18;;;3.75;;
51475;SDS011;37554;50.362;7.568;2023-10-09T03:27:42;5.55;;;4.05;;
51475;SDS011;37554;50.362;7.568;2023-10-09T03:30:10;5.63;;;3.50;;
51475;SDS011;37554;50.362;7.568;2023-10-09T03:32:42;3.53;;;3.03;;
51475;SDS011;37554;50.362;7.568;2023-10-09T03:35:09;4.45;;;3.63;;
51475;SDS011;37554;50.362;7.568;2023-10-09T03:37:38;5.10;;;3.78;;
51475;SDS011;37554;50.362;7.568;2023-10-09T03:40:04;4.88;;;3.20;;
51475;SDS011;37554;50.362;7.568;2023-10-09T03:42:33;4.97;;;3.28;;
51475;SDS011;37554;50.362;7.568;2023-10-09T03:45:01;5.32;;;3.28;;
51475;SDS011;37554;50.362;7.568;2023-10-09T03:47:31;5.72;;;3.53;;
51475;SDS011;37554;50.362;7.568;2023-10-09T03:49:56;4.88;;;3.33;;
51475;SDS011;37554;50.362;7.568;2023-10-09T03:52:27;5.03;;;3.58;;
51475;SDS011;37554;50.362;7.568;2023-10-09T03:54:55;4.25;;;3.22;;
51475;SDS011;37554;50.362;7.568;2023-10-09T03:57:21;5.43;;;3.80;;
51475;SDS011;37554;50.362;7.568;2023-10-09T03:59:48;4.65;;;3.05;;
51475;SDS011;37554;50.362;7.568;2023-10-09T04:02:15;5.25;;;3.25;;
51475;SDS011;37554;50.362;7.568;2023-10-09T04:04:42;5.13;;;3.55;;
51475;SDS011;37554;50.362;7.568;2023-10-09T04:07:12;3.00;;;2.70;;
51475;SDS011;37554;50.362;7.568;2023-10-09T04:09:41;3.72;;;3.17;;
51475;SDS011;37554;50.362;7.568;2023-10-09T04:12:09;3.58;;;3.28;;
51475;SDS011;37554;50.362;7.568;2023-10-09T04:14:38;5.53;;;3.40;;
51475;SDS011;37554;50.362;7.568;2023-10-09T04:17:14;6.03;;;3.25;;
51475;SDS011;37554;50.362;7.568;2023-10-09T04:19:59;4.32;;;3.10;;
51475;SDS011;37554;50.362;7.568;2023-10-09T04:22:43;4.72;;;3.15;;
51475;SDS011;37554;50.362;7.568;2023-10-09T04:25:38;5.72;;;2.78;;
51475;SDS011;37554;50.362;7.568;2023-10-09T04:28:07;4.00;;;3.10;;
51475;SDS011;37554;50.362;7.568;2023-10-09T04:30:39;2.90;;;2.55;;
51475;SDS011;37554;50.362;7.568;2023-10-09T04:33:07;4.25;;;3.22;;
51475;SDS011;37554;50.362;7.568;2023-10-09T04:35:45;3.78;;;3.15;;
51475;SDS011;37554;50.362;7.568;2023-10-09T04:38:31;5.03;;;3.10;;
51475;SDS011;37554;50.362;7.568;2023-10-09T04:40:59;4.22;;;3.28;;
51475;SDS011;37554;50.362;7.568;2023-10-09T04:43:25;4.68;;;3.35;;
51475;SDS011;37554;50.362;7.568;2023-10-09T04:45:51;4.38;;;3.35;;
51475;SDS011;37554;50.362;7.568;2023-10-09T04:48:38;5.80;;;3.42;;
51475;SDS011;37554;50.362;7.568;2023-10-09T04:51:06;5.45;;;3.40;;
51475;SDS011;37554;50.362;7.568;2023-10-09T04:53:58;4.00;;;3.17;;
51475;SDS011;37554;50.362;7.568;2023-10-09T04:56:40;4.40;;;3.33;;
51475;SDS011;37554;50.362;7.568;2023-10-09T04:59:21;4.55;;;3.47;;
51475;SDS011;37554;50.362;7.568;2023-10-09T05:01:50;4.07;;;3.42;;
51475;SDS011;37554;50.362;7.568;2023-10-09T05:04:23;3.97;;;3.42;;
51475;SDS011;37554;50.362;7.568;2023-10-09T05:07:02;3.58;;;3.20;;
51475;SDS011;37554;50.362;7.568;2023-10-09T05:09:47;4.32;;;3.40;;
51475;SDS011;37554;50.362;7.568;2023-10-09T05:12:39;4.53;;;3.72;;
51475;SDS011;37554;50.362;7.568;2023-10-09T05:15:11;5.30;;;3.90;;
51475;SDS011;37554;50.362;7.568;2023-10-09T05:17:38;4.72;;;4.03;;
51475;SDS011;37554;50.362;7.568;2023-10-09T05:20:05;4.78;;;4.28;;
51475;SDS011;37554;50.362;7.568;2023-10-09T05:22:50;4.55;;;4.05;;
51475;SDS011;37554;50.362;7.568;2023-10-09T05:25:22;4.83;;;4.33;;
51475;SDS011;37554;50.362;7.568;2023-10-09T05:28:10;7.20;;;4.45;;
51475;SDS011;37554;50.362;7.568;2023-10-09T05:30:56;4.65;;;4.20;;
51475;SDS011;37554;50.362;7.568;2023-10-09T05:33:31;4.68;;;4.28;;
51475;SDS011;37554;50.362;7.568;2023-10-09T05:35:59;7.68;;;4.93;;
51475;SDS011;37554;50.362;7.568;2023-10-09T05:38:44;5.20;;;4.35;;
51475;SDS011;37554;50.362;7.568;2023-10-09T05:41:23;7.00;;;4.80;;
51475;SDS011;37554;50.362;7.568;2023-10-09T05:44:12;5.50;;;4.95;;
51475;SDS011;37554;50.362;7.568;2023-10-09T05:46:57;6.97;;;4.53;;
51475;SDS011;37554;50.362;7.568;2023-10-09T05:49:41;5.68;;;4.90;;
51475;SDS011;37554;50.362;7.568;2023-10-09T05:52:20;6.30;;;5.07;;
51475;SDS011;37554;50.362;7.568;2023-10-09T05:55:18;7.07;;;5.07;;
51475;SDS011;37554;50.362;7.568;2023-10-09T05:57:51;8.30;;;5.47;;
51475;SDS011;37554;50.362;7.568;2023-10-09T06:00:35;12.27;;;6.07;;
51475;SDS011;37554;50.362;7.568;2023-10-09T06:03:19;10.80;;;5.63;;
51475;SDS011;37554;50.362;7.568;2023-10-09T06:05:45;8.25;;;5.47;;
51475;SDS011;37554;50.362;7.568;2023-10-09T06:08:26;13.23;;;6.05;;
51475;SDS011;37554;50.362;7.568;2023-10-09T06:11:06;8.70;;;5.35;;
51475;SDS011;37554;50.362;7.568;2023-10-09T06:13:56;9.32;;;4.63;;
51475;SDS011;37554;50.362;7.568;2023-10-09T06:16:35;7.22;;;4.90;;
51475;SDS011;37554;50.362;7.568;2023-10-09T06:19:04;7.90;;;4.90;;
51475;SDS011;37554;50.362;7.568;2023-10-09T06:21:36;7.63;;;4.75;;
51475;SDS011;37554;50.362;7.568;2023-10-09T06:24:24;9.70;;;4.90;;
51475;SDS011;37554;50.362;7.568;2023-10-09T06:27:06;6.95;;;4.53;;
51475;SDS011;37554;50.362;7.568;2023-10-09T06:29:32;8.45;;;5.05;;
51475;SDS011;37554;50.362;7.568;2023-10-09T06:32:06;4.80;;;4.35;;
51475;SDS011;37554;50.362;7.568;2023-10-09T06:34:52;5.60;;;4.18;;
51475;SDS011;37554;50.362;7.568;2023-10-09T06:37:46;7.63;;;4.32;;
51475;SDS011;37554;50.362;7.568;2023-10-09T06:40:33;6.72;;;4.68;;
51475;SDS011;37554;50.362;7.568;2023-10-09T06:43:05;9.80;;;4.75;;
51475;SDS011;37554;50.362;7.568;2023-10-09T06:45:37;7.07;;;4.35;;
51475;SDS011;37554;50.362;7.568;2023-10-09T06:48:09;7.03;;;4.25;;
51475;SDS011;37554;50.362;7.568;2023-10-09T06:50:54;6.10;;;4.35;;
51475;SDS011;37554;50.362;7.568;2023-10-09T06:53:32;7.57;;;4.40;;
51475;SDS011;37554;50.362;7.568;2023-10-09T06:56:17;7.05;;;4.80;;
51475;SDS011;37554;50.362;7.568;2023-10-09T06:58:58;7.10;;;4.32;;
51475;SDS011;37554;50.362;7.568;2023-10-09T07:01:46;7.47;;;4.13;;
51475;SDS011;37554;50.362;7.568;2023-10-09T07:04:33;9.57;;;4.97;;
51475;SDS011;37554;50.362;7.568;2023-10-09T07:07:02;7.60;;;4.18;;
51475;SDS011;37554;50.362;7.568;2023-10-09T07:12:29;6.70;;;3.65;;
51475;SDS011;37554;50.362;7.568;2023-10-09T07:14:58;6.30;;;4.22;;
51475;SDS011;37554;50.362;7.568;2023-10-09T07:17:46;7.35;;;4.50;;
51475;SDS011;37554;50.362;7.568;2023-10-09T07:20:12;7.70;;;4.53;;
51475;SDS011;37554;50.362;7.568;2023-10-09T07:23:06;7.60;;;3.97;;
51475;SDS011;37554;50.362;7.568;2023-10-09T07:25:42;6.55;;;4.03;;
51475;SDS011;37554;50.362;7.568;2023-10-09T07:28:20;7.13;;;4.15;;
51475;SDS011;37554;50.362;7.568;2023-10-09T07:30:55;6.55;;;4.28;;
51475;SDS011;37554;50.362;7.568;2023-10-09T07:33:23;6.55;;;4.20;;
51475;SDS011;37554;50.362;7.568;2023-10-09T07:36:00;4.93;;;3.92;;
51475;SDS011;37554;50.362;7.568;2023-10-09T07:38:31;9.18;;;4.75;;
51475;SDS011;37554;50.362;7.568;2023-10-09T07:41:00;7.22;;;4.82;;
51475;SDS011;37554;50.362;7.568;2023-10-09T07:43:31;10.32;;;5.07;;
51475;SDS011;37554;50.362;7.568;2023-10-09T07:46:04;10.73;;;5.28;;
51475;SDS011;37554;50.362;7.568;2023-10-09T07:48:53;11.02;;;5.22;;
51475;SDS011;37554;50.362;7.568;2023-10-09T07:51:21;9.10;;;5.40;;
51475;SDS011;37554;50.362;7.568;2023-10-09T07:53:51;17.17;;;5.70;;
51475;SDS011;37554;50.362;7.568;2023-10-09T07:56:32;8.30;;;5.60;;
51475;SDS011;37554;50.362;7.568;2023-10-09T07:59:07;9.10;;;5.32;;
51475;SDS011;37554;50.362;7.568;2023-10-09T08:01:42;8.75;;;5.55;;
51475;SDS011;37554;50.362;7.568;2023-10-09T08:04:19;8.85;;;5.45;;
51475;SDS011;37554;50.362;7.568;2023-10-09T08:07:02;8.57;;;5.72;;
51475;SDS011;37554;50.362;7.568;2023-10-09T08:09:32;7.93;;;4.72;;
51475;SDS011;37554;50.362;7.568;2023-10-09T08:12:11;7.13;;;4.97;;
51475;SDS011;37554;50.362;7.568;2023-10-09T08:15:03;12.75;;;5.13;;
51475;SDS011;37554;50.362;7.568;2023-10-09T08:17:57;9.85;;;5.53;;
51475;SDS011;37554;50.362;7.568;2023-10-09T08:20:34;8.77;;;5.30;;
51475;SDS011;37554;50.362;7.568;2023-10-09T08:23:16;7.60;;;5.13;;
51475;SDS011;37554;50.362;7.568;2023-10-09T08:26:03;6.88;;;4.90;;
51475;SDS011;37554;50.362;7.568;2023-10-09T08:28:42;9.95;;;5.70;;
51475;SDS011;37554;50.362;7.568;2023-10-09T08:31:12;8.40;;;5.32;;
51475;SDS011;37554;50.362;7.568;2023-10-09T08:34:05;8.10;;;4.65;;
51475;SDS011;37554;50.362;7.568;2023-10-09T08:36:34;9.93;;;4.22;;
51475;SDS011;37554;50.362;7.568;2023-10-09T08:39:03;10.00;;;5.70;;
51475;SDS011;37554;50.362;7.568;2023-10-09T08:41:50;11.30;;;5.60;;
51475;SDS011;37554;50.362;7.568;2023-10-09T08:44:17;9.57;;;5.55;;
51475;SDS011;37554;50.362;7.568;2023-10-09T08:46:48;11.80;;;5.93;;
51475;SDS011;37554;50.362;7.568;2023-10-09T08:49:15;11.35;;;4.88;;
51475;SDS011;37554;50.362;7.568;2023-10-09T08:51:42;6.95;;;4.53;;
51475;SDS011;37554;50.362;7.568;2023-10-09T08:54:07;8.10;;;5.30;;
51475;SDS011;37554;50.362;7.568;2023-10-09T08:56:36;8.80;;;5.65;;
51475;SDS011;37554;50.362;7.568;2023-10-09T08:59:04;9.15;;;4.93;;
51475;SDS011;37554;50.362;7.568;2023-10-09T09:01:30;8.75;;;5.63;;
51475;SDS011;37554;50.362;7.568;2023-10-09T09:03:59;9.15;;;5.55;;
51475;SDS011;37554;50.362;7.568;2023-10-09T09:06:27;11.95;;;5.57;;
51475;SDS011;37554;50.362;7.568;2023-10-09T09:09:10;6.63;;;4.93;;
51475;SDS011;37554;50.362;7.568;2023-10-09T09:11:40;8.65;;;4.90;;
51475;SDS011;37554;50.362;7.568;2023-10-09T09:14:13;13.18;;;4.97;;
51475;SDS011;37554;50.362;7.568;2023-10-09T09:16:44;9.27;;;4.68;;
51475;SDS011;37554;50.362;7.568;2023-10-09T09:19:13;6.65;;;4.35;;
51475;SDS011;37554;50.362;7.568;2023-10-09T09:21:49;6.75;;;4.32;;
51475;SDS011;37554;50.362;7.568;2023-10-09T09:24:35;8.20;;;4.18;;
51475;SDS011;37554;50.362;7.568;2023-10-09T09:27:02;7.53;;;4.20;;
51475;SDS011;37554;50.362;7.568;2023-10-09T09:32:07;5.18;;;4.22;;
51475;SDS011;37554;50.362;7.568;2023-10-09T09:34:47;4.95;;;3.80;;
51475;SDS011;37554;50.362;7.568;2023-10-09T09:37:20;9.45;;;4.63;;
51475;SDS011;37554;50.362;7.568;2023-10-09T09:39:53;10.13;;;4.30;;
51475;SDS011;37554;50.362;7.568;2023-10-09T09:42:22;6.60;;;4.25;;
51475;SDS011;37554;50.362;7.568;2023-10-09T09:44:52;5.32;;;3.90;;
51475;SDS011;37554;50.362;7.568;2023-10-09T09:47:18;10.15;;;4.53;;
51475;SDS011;37554;50.362;7.568;2023-10-09T09:49:52;7.03;;;3.58;;
51475;SDS011;37554;50.362;7.568;2023-10-09T09:52:37;7.57;;;3.63;;
51475;SDS011;37554;50.362;7.568;2023-10-09T09:55:07;7.70;;;4.40;;
51475;SDS011;37554;50.362;7.568;2023-10-09T09:57:43;9.95;;;3.67;;
51475;SDS011;37554;50.362;7.568;2023-10-09T10:00:16;7.32;;;4.60;;
51475;SDS011;37554;50.362;7.568;2023-10-09T10:03:11;8.75;;;4.10;;
51475;SDS011;37554;50.362;7.568;2023-10-09T10:05:39;4.82;;;3.72;;
51475;SDS011;37554;50.362;7.568;2023-10-09T10:08:07;6.75;;;3.90;;
51475;SDS011;37554;50.362;7.568;2023-10-09T10:10:40;5.40;;;3.60;;
51475;SDS011;37554;50.362;7.568;2023-10-09T10:16:09;4.40;;;3.75;;
51475;SDS011;37554;50.362;7.568;2023-10-09T10:18:56;6.63;;;3.42;;
51475;SDS011;37554;50.362;7.568;2023-10-09T10:21:39;6.03;;;4.47;;
51475;SDS011;37554;50.362;7.568;2023-10-09T10:29:35;6.70;;;4.03;;
51475;SDS011;37554;50.362;7.568;2023-10-09T10:32:03;9.43;;;4.03;;
51475;SDS011;37554;50.362;7.568;2023-10-09T10:37:37;5.10;;;3.30;;
51475;SDS011;37554;50.362;7.568;2023-10-09T10:40:22;5.05;;;3.05;;
51475;SDS011;37554;50.362;7.568;2023-10-09T10:43:20;5.68;;;3.33;;
51475;SDS011;37554;50.362;7.568;2023-10-09T10:46:04;5.93;;;3.50;;
51475;SDS011;37554;50.362;7.568;2023-10-09T10:48:38;6.68;;;3.72;;
51475;SDS011;37554;50.362;7.568;2023-10-09T10:51:05;7.72;;;3.90;;
51475;SDS011;37554;50.362;7.568;2023-10-09T10:53:31;9.73;;;4.95;;
51475;SDS011;37554;50.362;7.568;2023-10-09T10:56:16;6.07;;;4.15;;
51475;SDS011;37554;50.362;7.568;2023-10-09T10:58:42;8.23;;;5.20;;
51475;SDS011;37554;50.362;7.568;2023-10-09T11:01:31;6.88;;;4.57;;
51475;SDS011;37554;50.362;7.568;2023-10-09T11:04:22;7.47;;;4.32;;
51475;SDS011;37554;50.362;7.568;2023-10-09T11:06:53;7.78;;;4.30;;
51475;SDS011;37554;50.362;7.568;2023-10-09T11:09:42;6.88;;;4.28;;
51475;SDS011;37554;50.362;7.568;2023-10-09T11:12:23;9.68;;;4.75;;
51475;SDS011;37554;50.362;7.568;2023-10-09T11:14:50;7.80;;;4.82;;
51475;SDS011;37554;50.362;7.568;2023-10-09T11:17:34;5.75;;;4.25;;
51475;SDS011;37554;50.362;7.568;2023-10-09T11:20:02;6.65;;;4.47;;
51475;SDS011;37554;50.362;7.568;2023-10-09T11:22:48;7.63;;;4.70;;
51475;SDS011;37554;50.362;7.568;2023-10-09T11:25:33;8.02;;;4.60;;
51475;SDS011;37554;50.362;7.568;2023-10-09T11:28:00;6.57;;;4.30;;
51475;SDS011;37554;50.362;7.568;2023-10-09T11:30:46;9.52;;;4.05;;
51475;SDS011;37554;50.362;7.568;2023-10-09T11:33:11;5.25;;;3.95;;
51475;SDS011;37554;50.362;7.568;2023-10-09T11:35:40;4.40;;;4.00;;
51475;SDS011;37554;50.362;7.568;2023-10-09T11:38:09;5.05;;;3.55;;
51475;SDS011;37554;50.362;7.568;2023-10-09T11:40:47;6.10;;;3.22;;
51475;SDS011;37554;50.362;7.568;2023-10-09T11:43:44;7.05;;;4.20;;
51475;SDS011;37554;50.362;7.568;2023-10-09T11:46:22;7.00;;;4.40;;
51475;SDS011;37554;50.362;7.568;2023-10-09T11:49:13;6.60;;;4.07;;
51475;SDS011;37554;50.362;7.568;2023-10-09T11:51:50;7.60;;;4.80;;
51475;SDS011;37554;50.362;7.568;2023-10-09T11:54:34;5.88;;;4.38;;
51475;SDS011;37554;50.362;7.568;2023-10-09T11:57:01;5.50;;;3.70;;
51475;SDS011;37554;50.362;7.568;2023-10-09T11:59:30;7.50;;;4.22;;
51475;SDS011;37554;50.362;7.568;2023-10-09T12:02:06;5.55;;;3.55;;
51475;SDS011;37554;50.362;7.568;2023-10-09T12:04:39;3.97;;;3.38;;
51475;SDS011;37554;50.362;7.568;2023-10-09T12:07:08;5.68;;;3.75;;
51475;SDS011;37554;50.362;7.568;2023-10-09T12:09:35;4.53;;;3.45;;
51475;SDS011;37554;50.362;7.568;2023-10-09T12:12:02;7.47;;;3.80;;
51475;SDS011;37554;50.362;7.568;2023-10-09T12:14:29;4.72;;;3.47;;
51475;SDS011;37554;50.362;7.568;2023-10-09T12:17:01;6.10;;;3.58;;
51475;SDS011;37554;50.362;7.568;2023-10-09T12:21:59;4.90;;;3.72;;
51475;SDS011;37554;50.362;7.568;2023-10-09T12:24:26;6.15;;;3.90;;
51475;SDS011;37554;50.362;7.568;2023-10-09T12:26:54;4.85;;;3.67;;
51475;SDS011;37554;50.362;7.568;2023-10-09T12:29:20;7.45;;;3.92;;
51475;SDS011;37554;50.362;7.568;2023-10-09T12:31:45;5.57;;;3.05;;
51475;SDS011;37554;50.362;7.568;2023-10-09T12:34:12;8.93;;;3.50;;
51475;SDS011;37554;50.362;7.568;2023-10-09T12:36:42;7.45;;;3.20;;
51475;SDS011;37554;50.362;7.568;2023-10-09T12:39:10;4.32;;;3.30;;
51475;SDS011;37554;50.362;7.568;2023-10-09T12:41:46;5.10;;;3.47;;
51475;SDS011;37554;50.362;7.568;2023-10-09T12:44:13;8.30;;;3.75;;
51475;SDS011;37554;50.362;7.568;2023-10-09T12:46:40;6.90;;;3.22;;
51475;SDS011;37554;50.362;7.568;2023-10-09T12:49:07;9.73;;;3.75;;
51475;SDS011;37554;50.362;7.568;2023-10-09T12:51:33;6.05;;;3.30;;
51475;SDS011;37554;50.362;7.568;2023-10-09T12:53:58;4.25;;;3.22;;
51475;SDS011;37554;50.362;7.568;2023-10-09T12:56:26;9.43;;;3.58;;
51475;SDS011;37554;50.362;7.568;2023-10-09T12:59:01;5.38;;;3.38;;
51475;SDS011;37554;50.362;7.568;2023-10-09T13:01:29;7.57;;;3.45;;
51475;SDS011;37554;50.362;7.568;2023-10-09T13:03:59;6.03;;;3.30;;
51475;SDS011;37554;50.362;7.568;2023-10-09T13:06:25;6.32;;;3.47;;
51475;SDS011;37554;50.362;7.568;2023-10-09T13:08:51;6.05;;;3.13;;
51475;SDS011;37554;50.362;7.568;2023-10-09T13:11:17;5.00;;;3.42;;
51475;SDS011;37554;50.362;7.568;2023-10-09T13:13:44;6.85;;;3.25;;
51475;SDS011;37554;50.362;7.568;2023-10-09T13:16:18;6.25;;;3.42;;
51475;SDS011;37554;50.362;7.568;2023-10-09T13:21:20;5.93;;;2.35;;
51475;SDS011;37554;50.362;7.568;2023-10-09T13:23:50;4.65;;;3.03;;
51475;SDS011;37554;50.362;7.568;2023-10-09T13:26:19;4.97;;;3.03;;
51475;SDS011;37554;50.362;7.568;2023-10-09T13:28:55;8.75;;;3.15;;
51475;SDS011;37554;50.362;7.568;2023-10-09T13:31:22;5.15;;;3.13;;
51475;SDS011;37554;50.362;7.568;2023-10-09T13:33:53;5.20;;;3.60;;
51475;SDS011;37554;50.362;7.568;2023-10-09T13:36:24;5.95;;;3.13;;
51475;SDS011;37554;50.362;7.568;2023-10-09T13:41:58;7.00;;;3.28;;
51475;SDS011;37554;50.362;7.568;2023-10-09T13:44:28;5.28;;;3.50;;
51475;SDS011;37554;50.362;7.568;2023-10-09T13:46:54;6.57;;;3.38;;
51475;SDS011;37554;50.362;7.568;2023-10-09T13:49:24;3.95;;;2.92;;
51475;SDS011;37554;50.362;7.568;2023-10-09T13:51:57;5.78;;;3.25;;
51475;SDS011;37554;50.362;7.568;2023-10-09T13:54:23;4.32;;;3.38;;
51475;SDS011;37554;50.362;7.568;2023-10-09T13:56:58;4.10;;;3.08;;
51475;SDS011;37554;50.362;7.568;2023-10-09T13:59:24;3.88;;;2.85;;
51475;SDS011;37554;50.362;7.568;2023-10-09T14:01:53;5.35;;;3.35;;
51475;SDS011;37554;50.362;7.568;2023-10-09T14:04:20;5.00;;;3.00;;
51475;SDS011;37554;50.362;7.568;2023-10-09T14:06:46;5.90;;;3.15;;
51475;SDS011;37554;50.362;7.568;2023-10-09T14:09:22;5.70;;;3.40;;
51475;SDS011;37554;50.362;7.568;2023-10-09T14:11:57;7.93;;;3.65;;
51475;SDS011;37554;50.362;7.568;2023-10-09T14:14:44;5.43;;;3.10;;
51475;SDS011;37554;50.362;7.568;2023-10-09T14:17:16;5.20;;;3.67;;
51475;SDS011;37554;50.362;7.568;2023-10-09T14:19:48;8.02;;;3.30;;
51475;SDS011;37554;50.362;7.568;2023-10-09T14:22:19;4.47;;;3.25;;
51475;SDS011;37554;50.362;7.568;2023-10-09T14:24:46;5.20;;;3.53;;
51475;SDS011;37554;50.362;7.568;2023-10-09T14:27:16;6.13;;;3.72;;
51475;SDS011;37554;50.362;7.568;2023-10-09T14:29:45;4.50;;;3.42;;
51475;SDS011;37554;50.362;7.568;2023-10-09T14:32:14;4.50;;;3.35;;
51475;SDS011;37554;50.362;7.568;2023-10-09T14:34:44;4.93;;;3.22;;
51475;SDS011;37554;50.362;7.568;2023-10-09T14:37:19;7.88;;;3.50;;
51475;SDS011;37554;50.362;7.568;2023-10-09T14:39:45;6.07;;;3.35;;
51475;SDS011;37554;50.362;7.568;2023-10-09T14:42:16;7.28;;;3.40;;
51475;SDS011;37554;50.362;7.568;2023-10-09T14:44:43;8.10;;;3.45;;
51475;SDS011;37554;50.362;7.568;2023-10-09T14:47:12;5.60;;;3.25;;
51475;SDS011;37554;50.362;7.568;2023-10-09T14:49:39;5.80;;;3.25;;
51475;SDS011;37554;50.362;7.568;2023-10-09T14:52:08;7.80;;;3.50;;
51475;SDS011;37554;50.362;7.568;2023-10-09T14:54:35;6.78;;;3.22;;
51475;SDS011;37554;50.362;7.568;2023-10-09T14:57:01;4.60;;;3.25;;
51475;SDS011;37554;50.362;7.568;2023-10-09T14:59:31;8.45;;;3.00;;
51475;SDS011;37554;50.362;7.568;2023-10-09T15:02:00;4.07;;;2.92;;
51475;SDS011;37554;50.362;7.568;2023-10-09T15:04:26;3.95;;;3.33;;
51475;SDS011;37554;50.362;7.568;2023-10-09T15:06:52;3.67;;;3.05;;
51475;SDS011;37554;50.362;7.568;2023-10-09T15:09:17;4.80;;;3.03;;
51475;SDS011;37554;50.362;7.568;2023-10-09T15:11:53;6.57;;;3.25;;
51475;SDS011;37554;50.362;7.568;2023-10-09T15:14:19;6.47;;;3.45;;
51475;SDS011;37554;50.362;7.568;2023-10-09T15:16:45;5.50;;;3.40;;
51475;SDS011;37554;50.362;7.568;2023-10-09T15:19:11;5.18;;;3.42;;
51475;SDS011;37554;50.362;7.568;2023-10-09T15:21:38;7.63;;;3.55;;
51475;SDS011;37554;50.362;7.568;2023-10-09T15:24:11;5.00;;;3.92;;
51475;SDS011;37554;50.362;7.568;2023-10-09T15:26:46;5.35;;;3.50;;
51475;SDS011;37554;50.362;7.568;2023-10-09T15:29:18;5.72;;;3.10;;
51475;SDS011;37554;50.362;7.568;2023-10-09T15:31:48;3.97;;;3.33;;
51475;SDS011;37554;50.362;7.568;2023-10-09T15:34:15;8.57;;;7.47;;
51475;SDS011;37554;50.362;7.568;2023-10-09T15:36:43;20.02;;;17.60;;
51475;SDS011;37554;50.362;7.568;2023-10-09T15:39:12;19.52;;;16.45;;
51475;SDS011;37554;50.362;7.568;2023-10-09T15:41:38;17.77;;;15.18;;
51475;SDS011;37554;50.362;7.568;2023-10-09T15:44:07;20.92;;;14.23;;
51475;SDS011;37554;50.362;7.568;2023-10-09T15:46:33;11.88;;;9.70;;
51475;SDS011;37554;50.362;7.568;2023-10-09T15:48:59;9.70;;;6.97;;
51475;SDS011;37554;50.362;7.568;2023-10-09T15:51:28;7.30;;;4.88;;